Latest Weather Observations for Rhyll

IDV60801

Issued at 9:05 pm EST Thursday 31 July 2014 (issued every 30 minutes, with the page automatically refreshed every 10 minutes)

About weather observations | Map of weather stations | Latest weather observations for VIC | Other Formats
Station Details ID: 086373 Name: RHYLL Lat: -38.46 Lon: 145.31 Height: 13.4 m
Data from the previous 72 hours. | See also: Recent months at Rhyll
Date/Time
EST
Temp
°C
App
Temp
°C
Dew
Point
Rel
Hum
%
Delta-T
°C
Wind Press
QNH
hPa
Press
MSL
hPa
Rain
since 9 am
mm
Dir
 
Spd
km/h
Gust
km/h
Spd
kts
Gust
kts
31/09:00pm 8.9 4.4 4.1 72 2.1 WNW 17 35 9 19 999.2 999.2 6.8
31/08:30pm 9.2 4.4 4.6 73 2.1 WNW 19 33 10 18 999.4 - 6.8
31/08:00pm 9.2 4.6 5.4 77 1.7 NW 19 39 10 21 998.8 998.8 6.8
31/07:30pm 8.7 4.5 5.6 81 1.4 NW 17 32 9 17 998.6 - 6.8
31/07:00pm 8.5 4.7 6.0 84 1.1 NW 15 28 8 15 998.7 998.7 6.8
31/06:30pm 8.2 3.7 6.0 86 1.0 NW 19 35 10 19 998.2 - 6.8
31/06:00pm 7.8 3.6 5.9 88 0.9 WNW 17 30 9 16 998.3 998.3 6.8
31/05:30pm 7.4 2.6 5.7 89 0.8 W 20 33 11 18 998.0 - 6.6
31/05:00pm 7.6 2.4 5.7 88 0.9 W 22 48 12 26 997.9 997.9 5.8
31/04:30pm 8.0 3.0 6.5 90 0.7 W 22 41 12 22 997.5 - 5.4
31/04:00pm 8.4 4.1 7.2 92 0.6 W 19 35 10 19 996.8 996.8 4.0
31/03:30pm 8.4 4.0 7.2 92 0.6 W 20 46 11 25 996.2 - 3.6
31/03:00pm 9.2 3.4 7.8 91 0.7 WSW 28 50 15 27 995.4 995.4 2.2
31/02:30pm 10.6 4.9 8.5 87 1.0 W 28 46 15 25 994.6 - 0.4
31/02:18pm 13.1 5.4 7.1 67 2.9 WSW 37 56 20 30 993.7 - 0.0
31/02:00pm 15.9 9.6 7.4 57 4.3 NNW 30 54 16 29 992.0 992.0 0.0
31/01:30pm 15.9 8.1 8.2 60 3.9 NNW 39 57 21 31 992.3 - 0.0
31/01:00pm 16.3 6.2 7.5 56 4.4 NNW 50 80 27 43 992.7 992.7 0.0
31/12:36pm 16.2 5.3 7.4 56 4.4 NNW 54 76 29 41 993.1 - 0.0
31/12:30pm 16.4 5.8 7.1 54 4.7 NNW 52 69 28 37 993.4 - 0.0
31/12:00pm 15.9 4.7 7.4 57 4.3 NNW 56 76 30 41 993.9 993.9 0.0
31/11:30am 15.8 6.7 8.3 61 3.8 NNW 46 69 25 37 995.3 - 0.0
31/11:05am 15.6 5.7 8.1 61 3.8 NNW 50 69 27 37 996.2 - 0.0
31/11:00am 15.6 5.3 8.1 61 3.8 NNW 52 67 28 36 996.4 996.4 0.0
31/10:30am 15.4 4.2 8.4 63 3.5 NNW 57 78 31 42 996.6 - 0.0
31/10:08am 15.3 3.8 8.5 64 3.4 NNW 59 80 32 43 996.6 - 0.0
31/10:00am 15.0 3.5 8.7 66 3.2 NNW 59 74 32 40 996.8 996.8 0.0
31/09:42am 14.9 3.8 8.8 67 3.1 NNW 57 78 31 42 997.1 - 0.0
31/09:30am 14.8 2.9 8.7 67 3.1 NNW 61 80 33 43 996.7 - 0.0
31/09:04am 14.5 2.7 8.9 69 2.9 NNW 61 85 33 46 997.4 - 0.0
31/09:00am 14.5 3.1 8.9 69 2.9 NNW 59 74 32 40 997.5 997.5 0.4
31/08:36am 14.3 3.8 8.9 70 2.7 N 54 74 29 40 998.5 - 0.4
31/08:30am 14.2 3.7 8.8 70 2.7 N 54 70 29 38 998.6 - 0.4
31/08:00am 14.1 5.1 8.7 70 2.7 N 46 63 25 34 999.4 999.4 0.4
31/07:30am 13.8 6.1 8.6 71 2.6 N 39 57 21 31 1000.2 - 0.4
31/07:13am 13.7 5.6 8.7 72 2.5 N 41 59 22 32 1000.2 - 0.4
31/07:00am 13.6 5.5 8.7 72 2.5 N 41 54 22 29 1000.4 1000.4 0.4
31/06:30am 13.6 5.0 8.7 72 2.5 N 44 57 24 31 1000.7 - 0.4
31/06:00am 13.7 3.1 8.3 70 2.7 N 54 69 29 37 1000.5 1000.5 0.4
31/05:30am 13.7 3.4 8.3 70 2.7 N 52 69 28 37 1000.6 - 0.4
31/05:00am 13.9 4.7 8.1 68 2.9 N 46 61 25 33 1001.3 1001.3 0.4
31/04:30am 13.9 6.2 8.5 70 2.7 N 39 52 21 28 1001.9 - 0.4
31/04:00am 13.9 6.6 8.9 72 2.5 N 37 48 20 26 1002.7 1002.7 0.4
31/03:30am 14.3 5.9 8.9 70 2.7 N 43 52 23 28 1003.3 - 0.4
31/03:00am 14.6 5.9 8.5 67 3.1 N 44 61 24 33 1003.7 1003.7 0.4
31/02:59am 14.5 6.0 8.7 68 2.9 N 43 61 23 33 1003.7 - 0.4
31/02:30am 14.1 7.0 9.7 75 2.3 N 37 46 20 25 1004.2 - 0.4
31/02:00am 14.1 6.6 9.3 73 2.5 NNW 39 52 21 28 1004.6 1004.6 0.4
31/01:30am 14.3 6.8 9.5 73 2.5 NNW 39 57 21 31 1004.8 - 0.4
31/01:29am 14.2 7.1 9.6 74 2.4 NNW 37 57 20 31 1004.8 - 0.4
31/01:00am 14.2 8.1 9.8 75 2.3 NNW 32 44 17 24 1005.5 1005.5 0.4
31/12:30am 14.4 8.1 9.6 73 2.5 NNW 33 46 18 25 1006.1 - 0.4
31/12:13am 13.9 8.1 9.5 75 2.3 NNW 30 48 16 26 1006.3 - 0.4
31/12:00am 14.3 7.9 9.5 73 2.5 NNW 33 48 18 26 1006.6 1006.6 0.4
 
Date/Time
EST
Temp
°C
App
Temp
°C
Dew
Point
Rel
Hum
%
Delta-T
°C
Wind Press
QNH
hPa
Press
MSL
hPa
Rain
since 9 am
mm
Dir
 
Spd
km/h
Gust
km/h
Spd
kts
Gust
kts
30/11:49pm 14.3 7.9 9.5 73 2.5 NNW 33 56 18 30 1006.6 - 0.4
30/11:30pm 14.8 7.9 9.0 68 3.0 NNW 35 52 19 28 1006.9 - 0.4
30/11:00pm 14.4 8.1 9.0 70 2.8 NNW 32 46 17 25 1007.2 1007.2 0.4
30/10:30pm 14.8 7.2 9.2 69 2.9 NNW 39 50 21 27 1007.2 - 0.4
30/10:00pm 14.7 7.9 9.1 69 2.9 NNW 35 50 19 27 1007.3 1007.3 0.4
30/09:30pm 14.7 7.9 9.3 70 2.8 NNW 35 46 19 25 1007.7 - 0.4
30/09:00pm 15.1 8.7 9.2 68 3.0 NNW 33 52 18 28 1008.0 1008.0 0.4
30/08:51pm 14.9 9.5 9.5 70 2.8 NNW 28 46 15 25 1008.2 - 0.4
30/08:30pm 15.0 8.8 10.0 72 2.6 NNW 33 46 18 25 1007.9 - 0.4
30/08:00pm 14.7 9.1 10.3 75 2.3 NNW 30 44 16 24 1007.8 1007.8 0.4
30/07:30pm 14.5 8.6 10.3 76 2.2 NNW 32 41 17 22 1007.7 - 0.4
30/07:00pm 14.9 8.8 9.9 72 2.6 NNW 32 48 17 26 1008.0 1008.0 0.4
30/06:53pm 15.1 9.5 10.1 72 2.6 NNW 30 48 16 26 1008.1 - 0.4
30/06:30pm 15.0 9.4 10.2 73 2.5 NNW 30 46 16 25 1008.0 - 0.4
30/06:00pm 15.0 8.5 10.2 73 2.5 NNW 35 52 19 28 1007.8 1007.8 0.4
30/05:40pm 15.1 9.5 10.3 73 2.5 NNW 30 48 16 26 1007.7 - 0.4
30/05:30pm 15.1 9.2 10.3 73 2.5 NNW 32 46 17 25 1007.6 - 0.4
30/05:00pm 14.5 9.6 11.3 81 1.7 NNW 28 39 15 21 1007.7 1007.7 0.4
30/04:30pm 14.2 11.8 11.5 84 1.4 NW 15 26 8 14 1008.0 - 0.4
30/04:00pm 14.0 11.7 11.9 87 1.1 NW 15 24 8 13 1008.3 1008.3 0.4
30/03:30pm 15.1 12.5 12.1 82 1.6 NW 17 35 9 19 1008.1 - 0.4
30/03:00pm 14.3 12.4 11.8 85 1.3 NNW 13 22 7 12 1008.3 1008.3 0.0
30/02:30pm 14.6 12.3 11.6 82 1.6 NW 15 32 8 17 1008.1 - 0.0
30/02:00pm 15.2 11.9 10.8 75 2.3 NW 19 35 10 19 1008.5 1008.5 0.0
30/01:30pm 16.0 13.1 11.0 72 2.7 NW 17 32 9 17 1008.3 - 0.0
30/01:00pm 15.9 13.4 11.1 73 2.6 WNW 15 35 8 19 1009.2 1009.2 0.0
30/12:30pm 15.7 12.1 10.0 69 3.0 NW 19 35 10 19 1009.7 - 0.0
30/12:00pm 15.6 12.5 10.2 70 2.8 NW 17 32 9 17 1010.0 1010.0 0.0
30/11:30am 15.2 11.7 11.0 76 2.2 NNW 20 32 11 17 1010.5 - 0.0
30/11:00am 14.3 10.6 10.3 77 2.1 NNW 20 41 11 22 1011.2 1011.2 0.0
30/10:30am 13.9 11.1 9.9 77 2.1 NW 15 28 8 15 1011.6 - 0.0
30/10:00am 13.4 8.5 9.8 79 1.9 NNW 26 41 14 22 1011.3 1011.3 0.0
30/09:30am 12.7 9.1 10.4 86 1.2 NNW 20 28 11 15 1011.3 - 0.0
30/09:00am 12.7 9.8 9.7 82 1.5 NNW 15 20 8 11 1011.2 1011.2 6.0
30/08:30am 13.2 11.1 9.6 79 1.8 NNW 11 19 6 10 1011.0 - 6.0
30/08:00am 12.7 9.8 9.5 81 1.6 NNW 15 30 8 16 1010.9 1010.9 6.0
30/07:30am 12.3 9.1 9.9 85 1.2 NNW 17 26 9 14 1011.0 - 6.0
30/07:00am 12.3 8.7 10.0 86 1.2 NNW 19 26 10 14 1011.0 1011.0 6.0
30/06:30am 12.2 10.2 10.1 87 1.1 NW 11 22 6 12 1010.7 - 6.0
30/06:00am 12.2 10.2 10.1 87 1.1 WNW 11 24 6 13 1010.7 1010.7 6.0
30/05:30am 12.3 10.8 10.4 88 1.0 WNW 9 20 5 11 1010.3 - 6.0
30/05:00am 12.3 10.9 10.9 91 0.7 WNW 9 22 5 12 1010.0 1010.0 6.0
30/04:30am 12.3 10.5 10.7 90 0.8 NW 11 22 6 12 1009.8 - 6.0
30/04:00am 12.6 10.4 10.7 88 1.0 WNW 13 24 7 13 1009.7 1009.7 6.0
30/03:30am 12.7 10.6 11.1 90 0.8 WNW 13 26 7 14 1009.8 - 6.0
30/03:00am 12.8 9.6 11.4 91 0.7 W 19 32 10 17 1010.0 1010.0 6.0
30/02:30am 12.5 10.8 11.2 92 0.7 WNW 11 22 6 12 1009.8 - 6.0
30/02:00am 13.0 10.8 10.7 86 1.2 NW 13 24 7 13 1009.7 1009.7 6.0
30/01:30am 13.3 11.2 11.0 86 1.2 WNW 13 26 7 14 1009.7 - 6.0
30/01:00am 13.1 10.4 11.7 91 0.7 WNW 17 32 9 17 1009.4 1009.4 6.0
30/12:30am 12.5 10.5 11.4 93 0.6 WNW 13 28 7 15 1009.3 - 5.8
30/12:00am 12.8 10.9 11.7 93 0.6 WNW 13 30 7 16 1009.3 1009.3 5.6
 
Date/Time
EST
Temp
°C
App
Temp
°C
Dew
Point
Rel
Hum
%
Delta-T
°C
Wind Press
QNH
hPa
Press
MSL
hPa
Rain
since 9 am
mm
Dir
 
Spd
km/h
Gust
km/h
Spd
kts
Gust
kts
29/11:30pm 12.7 11.2 11.8 94 0.5 WNW 11 22 6 12 1009.3 - 5.6
29/11:00pm 13.0 10.7 11.6 91 0.7 WNW 15 32 8 17 1009.2 1009.2 5.6
29/10:30pm 12.8 10.9 11.9 94 0.5 NW 13 26 7 14 1008.7 - 5.6
29/10:00pm 12.5 10.5 11.6 94 0.5 WNW 13 24 7 13 1008.7 1008.7 5.6
29/09:30pm 13.0 9.8 11.9 93 0.6 W 20 32 11 17 1008.6 - 5.4
29/09:00pm 13.4 10.2 11.1 86 1.2 W 19 32 10 17 1008.1 1008.1 3.0
29/08:30pm 14.4 10.5 10.8 79 1.9 NW 22 46 12 25 1007.3 - 2.2
29/08:00pm 14.7 11.1 10.7 77 2.1 NW 20 33 11 18 1007.1 1007.1 2.2
29/07:30pm 14.9 11.3 10.5 75 2.3 NW 20 35 11 19 1007.1 - 2.2
29/07:00pm 15.0 11.4 10.6 75 2.3 NW 20 41 11 22 1007.0 1007.0 2.2
29/06:30pm 14.4 11.8 11.9 85 1.3 NW 17 37 9 20 1006.4 - 2.2
29/06:00pm 13.0 6.9 11.6 91 0.7 NNW 35 48 19 26 1006.2 1006.2 2.2
29/05:30pm 12.5 7.0 11.9 96 0.3 NNW 32 43 17 23 1006.1 - 2.2
29/05:00pm 12.0 5.5 11.7 98 0.2 NNW 37 48 20 26 1006.1 1006.1 2.2
29/04:30pm 12.0 7.8 11.1 94 0.5 NNW 24 37 13 20 1006.1 - 1.4
29/04:00pm 13.3 5.6 10.3 82 1.6 NNW 41 61 22 33 1005.4 1005.4 0.2
29/03:34pm 13.5 5.6 10.9 84 1.4 NNW 43 61 23 33 1005.1 - 0.2
29/03:30pm 13.2 5.4 11.1 87 1.1 NNW 43 57 23 31 1005.1 - 0.2
29/03:02pm 13.3 5.6 10.3 82 1.6 NNW 41 61 22 33 1005.1 - 0.0
29/03:00pm 13.4 5.7 10.2 81 1.7 NNW 41 56 22 30 1005.1 1005.1 0.0
29/02:41pm 13.9 6.5 9.9 77 2.1 NNW 39 59 21 32 1004.8 - 0.0
29/02:30pm 13.4 5.3 10.0 80 1.8 NNW 43 57 23 31 1004.7 - 0.0
29/02:11pm 13.4 5.5 9.5 77 2.0 NNW 41 59 22 32 1004.8 - 0.0
29/02:00pm 13.3 5.0 9.4 77 2.0 NNW 43 56 23 30 1004.9 1004.9 0.0
29/01:30pm 13.0 5.5 9.4 79 1.8 NNW 39 57 21 31 1005.4 - 0.0
29/01:00pm 13.1 5.1 9.0 76 2.1 NNW 41 54 22 29 1005.3 1005.3 0.0
29/12:30pm 13.1 4.1 8.8 75 2.2 NNW 46 59 25 32 1005.4 - 0.0
29/12:00pm 13.1 3.7 8.6 74 2.3 N 48 63 26 34 1006.1 1006.1 0.0
29/11:30am 13.2 4.7 8.5 73 2.3 N 43 54 23 29 1006.7 - 0.0
29/11:00am 13.2 4.5 8.5 73 2.4 N 44 57 24 31 1007.1 1007.1 0.0
29/10:30am 12.8 3.6 8.1 73 2.3 N 46 63 25 34 1007.0 - 0.0
29/10:00am 12.6 3.4 8.1 74 2.2 N 46 57 25 31 1006.6 1006.6 0.0
29/09:30am 12.5 3.3 8.0 74 2.2 N 46 59 25 32 1007.4 - 0.0
29/09:00am 12.3 2.7 7.8 74 2.2 N 48 61 26 33 1007.3 1007.3 0.0
29/08:30am 12.2 3.6 8.1 76 2.0 N 43 54 23 29 1007.7 - 0.0
29/08:00am 12.1 2.9 8.0 76 2.0 N 46 57 25 31 1007.9 1007.9 0.0
29/07:30am 12.2 3.4 7.9 75 2.1 N 44 56 24 30 1007.4 - 0.0
29/07:00am 12.2 5.2 8.3 77 1.9 N 35 46 19 25 1007.4 1007.4 0.0
29/06:30am 12.2 4.0 8.1 76 2.0 N 41 52 22 28 1007.4 - 0.0
29/06:00am 12.2 4.4 8.1 76 2.0 N 39 50 21 27 1007.7 1007.7 0.0
29/05:30am 12.2 3.6 8.3 77 1.9 N 43 57 23 31 1007.3 - 0.0
29/05:00am 12.4 3.7 8.5 77 1.9 N 44 56 24 30 1007.6 1007.6 0.0
29/04:30am 12.6 4.1 8.5 76 2.0 N 43 56 23 30 1007.6 - 0.0
29/04:00am 12.6 3.9 8.3 75 2.1 N 44 54 24 29 1007.5 1007.5 0.0
29/03:30am 12.7 4.2 8.4 75 2.1 N 43 52 23 28 1007.9 - 0.0
29/03:00am 12.5 6.1 8.4 76 2.0 N 32 43 17 23 1008.6 1008.6 0.0
29/02:30am 12.5 3.9 8.2 75 2.1 N 43 50 23 27 1008.8 - 0.0
29/02:00am 12.4 3.7 8.5 77 1.9 N 44 57 24 31 1009.1 1009.1 0.0
29/01:30am 12.4 3.7 8.5 77 1.9 N 44 56 24 30 1009.4 - 0.0
29/01:00am 12.8 4.2 8.7 76 2.1 N 44 54 24 29 1009.5 1009.5 0.0
29/12:30am 12.9 4.8 8.6 75 2.1 N 41 50 22 27 1010.2 - 0.0
29/12:00am 13.0 4.9 8.5 74 2.2 N 41 50 22 27 1010.6 1010.6 0.0
 
Date/Time
EST
Temp
°C
App
Temp
°C
Dew
Point
Rel
Hum
%
Delta-T
°C
Wind Press
QNH
hPa
Press
MSL
hPa
Rain
since 9 am
mm
Dir
 
Spd
km/h
Gust
km/h
Spd
kts
Gust
kts
28/11:30pm 13.0 5.3 8.7 75 2.2 N 39 50 21 27 1010.9 - 0.0
28/11:00pm 12.8 5.5 8.7 76 2.1 N 37 44 20 24 1011.2 1011.2 0.0
28/10:30pm 12.6 5.6 8.5 76 2.0 N 35 43 19 23 1011.4 - 0.0
28/10:00pm 12.7 5.0 8.6 76 2.0 N 39 46 21 25 1011.4 1011.4 0.0
28/09:30pm 12.7 5.7 8.4 75 2.1 N 35 43 19 23 1011.3 - 0.0

Other Formats:

Comma delimited format used in spreadsheet applications
http://www.bom.gov.au/fwo/IDV60801/IDV60801.94892.axf

JavaScript Object Notation format (JSON) in row-major order
http://www.bom.gov.au/fwo/IDV60801/IDV60801.94892.json